首页
METAR-TAF:

METAR-TAF

机场 :

富蘭克林縣, 佛蒙特州, 美国

纬度: 44-56-25N, 经度: 073-05-51W, 海拔: 69米

当前天气观测

该预报发布于14分钟前的15:15 UTC
风速7节,风向东南
温度 25°C
湿度 36%
气压 1014 hPa
能見度: 16.1公里
天空无云

METAR: KFSO 181515Z AUTO 14007KT 10SM CLR 25/09 A2995 RMK AO2 T02540085

时间: 11:29 (15:29 UTC)


TAF: 丢失

超过4000个机场的气象观测和天气预报(METAR&TAF报告)。

可查询的气象台以黄色和红色小点在地图上表示。

将鼠标移到小点上方,可查看气象台名称。

然后点击查看天气观测和预报。

如需切换地图:点击带黑十字的绿色按钮放大地图;点击带横线的绿色按钮缩小地图;或者点击绿色箭头查看邻近地区的地图。


METAR-TAF: